sensor_id;sensor_type;location;lat;lon;timestamp;temperature;humidity
75022;SHT31;63583;49.976;20.182;2022-11-10T00:02:05;7.78;91.32
75022;SHT31;63583;49.976;20.182;2022-11-10T00:04:31;7.65;91.54
75022;SHT31;63583;49.976;20.182;2022-11-10T00:06:56;7.65;91.68
75022;SHT31;63583;49.976;20.182;2022-11-10T00:09:22;7.58;91.90
75022;SHT31;63583;49.976;20.182;2022-11-10T00:11:48;7.51;92.22
75022;SHT31;63583;49.976;20.182;2022-11-10T00:14:14;7.47;92.28
75022;SHT31;63583;49.976;20.182;2022-11-10T00:16:59;7.42;92.18
75022;SHT31;63583;49.976;20.182;2022-11-10T00:19:32;7.36;92.61
75022;SHT31;63583;49.976;20.182;2022-11-10T00:21:59;7.31;92.62
75022;SHT31;63583;49.976;20.182;2022-11-10T00:24:26;7.30;92.45
75022;SHT31;63583;49.976;20.182;2022-11-10T00:26:52;7.24;92.50
75022;SHT31;63583;49.976;20.182;2022-11-10T00:29:19;7.15;92.68
75022;SHT31;63583;49.976;20.182;2022-11-10T00:31:45;7.30;92.27
75022;SHT31;63583;49.976;20.182;2022-11-10T00:34:13;7.26;92.49
75022;SHT31;63583;49.976;20.182;2022-11-10T00:36:40;7.23;93.02
75022;SHT31;63583;49.976;20.182;2022-11-10T00:39:06;7.17;92.60
75022;SHT31;63583;49.976;20.182;2022-11-10T00:41:32;7.15;93.00
75022;SHT31;63583;49.976;20.182;2022-11-10T00:43:58;7.05;93.35
75022;SHT31;63583;49.976;20.182;2022-11-10T00:46:24;7.22;93.02
75022;SHT31;63583;49.976;20.182;2022-11-10T00:48:50;7.30;92.61
75022;SHT31;63583;49.976;20.182;2022-11-10T00:53:46;7.09;92.60
75022;SHT31;63583;49.976;20.182;2022-11-10T00:56:12;7.19;93.12
75022;SHT31;63583;49.976;20.182;2022-11-10T00:58:37;7.16;92.86
75022;SHT31;63583;49.976;20.182;2022-11-10T01:01:04;7.12;92.55
75022;SHT31;63583;49.976;20.182;2022-11-10T01:03:31;7.02;93.19
75022;SHT31;63583;49.976;20.182;2022-11-10T01:05:57;7.16;93.11
75022;SHT31;63583;49.976;20.182;2022-11-10T01:08:24;7.08;92.89
75022;SHT31;63583;49.976;20.182;2022-11-10T01:10:50;6.95;93.15
75022;SHT31;63583;49.976;20.182;2022-11-10T01:13:15;7.12;92.69
75022;SHT31;63583;49.976;20.182;2022-11-10T01:15:41;6.98;92.78
75022;SHT31;63583;49.976;20.182;2022-11-10T01:18:07;6.92;93.03
75022;SHT31;63583;49.976;20.182;2022-11-10T01:20:34;6.96;92.81
75022;SHT31;63583;49.976;20.182;2022-11-10T01:23:00;6.96;92.88
75022;SHT31;63583;49.976;20.182;2022-11-10T01:25:26;6.92;92.67
75022;SHT31;63583;49.976;20.182;2022-11-10T01:27:52;6.87;92.88
75022;SHT31;63583;49.976;20.182;2022-11-10T01:30:18;6.85;92.97
75022;SHT31;63583;49.976;20.182;2022-11-10T01:32:44;6.85;92.93
75022;SHT31;63583;49.976;20.182;2022-11-10T01:35:10;6.70;93.27
75022;SHT31;63583;49.976;20.182;2022-11-10T01:37:36;6.77;93.19
75022;SHT31;63583;49.976;20.182;2022-11-10T01:40:22;6.67;93.26
75022;SHT31;63583;49.976;20.182;2022-11-10T01:42:53;6.67;92.90
75022;SHT31;63583;49.976;20.182;2022-11-10T01:47:58;6.65;93.63
75022;SHT31;63583;49.976;20.182;2022-11-10T01:50:29;6.64;93.93
75022;SHT31;63583;49.976;20.182;2022-11-10T01:53:00;6.88;93.72
75022;SHT31;63583;49.976;20.182;2022-11-10T01:55:27;6.93;93.25
75022;SHT31;63583;49.976;20.182;2022-11-10T01:57:54;7.02;93.62
75022;SHT31;63583;49.976;20.182;2022-11-10T02:00:21;7.06;93.01
75022;SHT31;63583;49.976;20.182;2022-11-10T02:02:57;7.05;92.89
75022;SHT31;63583;49.976;20.182;2022-11-10T02:05:25;7.15;92.99
75022;SHT31;63583;49.976;20.182;2022-11-10T02:07:51;7.16;92.30
75022;SHT31;63583;49.976;20.182;2022-11-10T02:10:19;7.10;92.46
75022;SHT31;63583;49.976;20.182;2022-11-10T02:12:46;7.06;92.56
75022;SHT31;63583;49.976;20.182;2022-11-10T02:15:15;6.99;92.34
75022;SHT31;63583;49.976;20.182;2022-11-10T02:17:42;6.88;92.31
75022;SHT31;63583;49.976;20.182;2022-11-10T02:20:11;6.75;92.49
75022;SHT31;63583;49.976;20.182;2022-11-10T02:22:37;6.71;92.45
75022;SHT31;63583;49.976;20.182;2022-11-10T02:25:04;6.64;92.35
75022;SHT31;63583;49.976;20.182;2022-11-10T02:27:31;6.57;92.63
75022;SHT31;63583;49.976;20.182;2022-11-10T02:29:57;6.55;92.74
75022;SHT31;63583;49.976;20.182;2022-11-10T02:32:23;6.44;93.03
75022;SHT31;63583;49.976;20.182;2022-11-10T02:34:49;6.38;93.49
75022;SHT31;63583;49.976;20.182;2022-11-10T02:37:15;6.52;93.28
75022;SHT31;63583;49.976;20.182;2022-11-10T02:39:41;6.44;92.92
75022;SHT31;63583;49.976;20.182;2022-11-10T02:42:07;6.41;92.54
75022;SHT31;63583;49.976;20.182;2022-11-10T02:44:38;6.36;92.65
75022;SHT31;63583;49.976;20.182;2022-11-10T02:47:05;6.48;91.71
75022;SHT31;63583;49.976;20.182;2022-11-10T02:49:31;6.40;91.48
75022;SHT31;63583;49.976;20.182;2022-11-10T02:51:57;6.19;92.14
75022;SHT31;63583;49.976;20.182;2022-11-10T02:54:23;6.06;92.68
75022;SHT31;63583;49.976;20.182;2022-11-10T02:56:49;6.03;93.71
75022;SHT31;63583;49.976;20.182;2022-11-10T02:59:14;6.16;93.66
75022;SHT31;63583;49.976;20.182;2022-11-10T03:01:40;6.20;93.30
75022;SHT31;63583;49.976;20.182;2022-11-10T03:04:06;6.17;93.67
75022;SHT31;63583;49.976;20.182;2022-11-10T03:06:32;6.12;94.16
75022;SHT31;63583;49.976;20.182;2022-11-10T03:08:58;6.23;94.06
75022;SHT31;63583;49.976;20.182;2022-11-10T03:11:24;6.41;93.98
75022;SHT31;63583;49.976;20.182;2022-11-10T03:13:50;6.29;94.13
75022;SHT31;63583;49.976;20.182;2022-11-10T03:16:16;6.26;94.20
75022;SHT31;63583;49.976;20.182;2022-11-10T03:18:42;6.27;94.21
75022;SHT31;63583;49.976;20.182;2022-11-10T03:21:08;6.19;94.11
75022;SHT31;63583;49.976;20.182;2022-11-10T03:23:34;6.33;93.58
75022;SHT31;63583;49.976;20.182;2022-11-10T03:26:03;6.27;92.53
75022;SHT31;63583;49.976;20.182;2022-11-10T03:28:29;6.09;92.40
75022;SHT31;63583;49.976;20.182;2022-11-10T03:30:55;6.03;92.67
75022;SHT31;63583;49.976;20.182;2022-11-10T03:33:20;6.07;92.69
75022;SHT31;63583;49.976;20.182;2022-11-10T03:35:46;5.98;93.74
75022;SHT31;63583;49.976;20.182;2022-11-10T03:38:12;6.07;94.38
75022;SHT31;63583;49.976;20.182;2022-11-10T03:40:38;6.06;94.40
75022;SHT31;63583;49.976;20.182;2022-11-10T03:43:04;6.05;94.38
75022;SHT31;63583;49.976;20.182;2022-11-10T03:45:29;6.05;94.45
75022;SHT31;63583;49.976;20.182;2022-11-10T03:47:55;6.13;94.32
75022;SHT31;63583;49.976;20.182;2022-11-10T03:50:21;6.16;94.03
75022;SHT31;63583;49.976;20.182;2022-11-10T03:52:47;6.20;94.01
75022;SHT31;63583;49.976;20.182;2022-11-10T03:55:15;6.16;93.79
75022;SHT31;63583;49.976;20.182;2022-11-10T03:57:41;6.19;93.14
75022;SHT31;63583;49.976;20.182;2022-11-10T04:00:08;6.19;93.03
75022;SHT31;63583;49.976;20.182;2022-11-10T04:02:35;6.17;93.13
75022;SHT31;63583;49.976;20.182;2022-11-10T04:05:01;6.17;93.23
75022;SHT31;63583;49.976;20.182;2022-11-10T04:07:45;6.19;93.64
75022;SHT31;63583;49.976;20.182;2022-11-10T04:10:29;6.20;93.85
75022;SHT31;63583;49.976;20.182;2022-11-10T04:12:55;6.26;93.80
75022;SHT31;63583;49.976;20.182;2022-11-10T04:15:40;6.41;93.85
75022;SHT31;63583;49.976;20.182;2022-11-10T04:18:10;6.42;93.68
75022;SHT31;63583;49.976;20.182;2022-11-10T04:20:46;6.48;93.42
75022;SHT31;63583;49.976;20.182;2022-11-10T04:23:13;6.47;92.99
75022;SHT31;63583;49.976;20.182;2022-11-10T04:26:08;6.48;92.90
75022;SHT31;63583;49.976;20.182;2022-11-10T04:28:55;6.42;92.86
75022;SHT31;63583;49.976;20.182;2022-11-10T04:31:22;6.42;92.87
75022;SHT31;63583;49.976;20.182;2022-11-10T04:33:49;6.42;92.76
75022;SHT31;63583;49.976;20.182;2022-11-10T04:36:17;6.44;92.41
75022;SHT31;63583;49.976;20.182;2022-11-10T04:38:43;6.37;92.20
75022;SHT31;63583;49.976;20.182;2022-11-10T04:41:10;6.31;92.37
75022;SHT31;63583;49.976;20.182;2022-11-10T04:43:36;6.30;92.51
75022;SHT31;63583;49.976;20.182;2022-11-10T04:46:03;6.30;92.80
75022;SHT31;63583;49.976;20.182;2022-11-10T04:48:30;6.30;92.90
75022;SHT31;63583;49.976;20.182;2022-11-10T04:50:56;6.33;93.00
75022;SHT31;63583;49.976;20.182;2022-11-10T04:53:22;6.40;92.94
75022;SHT31;63583;49.976;20.182;2022-11-10T04:55:48;6.37;92.93
75022;SHT31;63583;49.976;20.182;2022-11-10T04:58:14;6.48;92.61
75022;SHT31;63583;49.976;20.182;2022-11-10T05:00:41;6.51;92.37
75022;SHT31;63583;49.976;20.182;2022-11-10T05:03:08;6.55;92.06
75022;SHT31;63583;49.976;20.182;2022-11-10T05:05:34;6.64;91.71
75022;SHT31;63583;49.976;20.182;2022-11-10T05:08:03;6.68;91.45
75022;SHT31;63583;49.976;20.182;2022-11-10T05:10:29;6.63;91.74
75022;SHT31;63583;49.976;20.182;2022-11-10T05:12:56;6.60;92.08
75022;SHT31;63583;49.976;20.182;2022-11-10T05:15:23;6.64;92.06
75022;SHT31;63583;49.976;20.182;2022-11-10T05:17:49;6.68;91.92
75022;SHT31;63583;49.976;20.182;2022-11-10T05:20:16;6.63;92.11
75022;SHT31;63583;49.976;20.182;2022-11-10T05:22:44;6.57;91.95
75022;SHT31;63583;49.976;20.182;2022-11-10T05:25:10;6.57;92.16
75022;SHT31;63583;49.976;20.182;2022-11-10T05:27:36;6.54;92.50
75022;SHT31;63583;49.976;20.182;2022-11-10T05:30:02;6.60;92.23
75022;SHT31;63583;49.976;20.182;2022-11-10T05:32:30;6.68;92.23
75022;SHT31;63583;49.976;20.182;2022-11-10T05:34:56;6.71;91.98
75022;SHT31;63583;49.976;20.182;2022-11-10T05:37:21;6.68;92.09
75022;SHT31;63583;49.976;20.182;2022-11-10T05:39:47;6.65;92.25
75022;SHT31;63583;49.976;20.182;2022-11-10T05:42:13;6.68;92.24
75022;SHT31;63583;49.976;20.182;2022-11-10T05:44:39;6.75;92.26
75022;SHT31;63583;49.976;20.182;2022-11-10T05:47:05;6.81;92.22
75022;SHT31;63583;49.976;20.182;2022-11-10T05:49:31;6.92;92.04
75022;SHT31;63583;49.976;20.182;2022-11-10T05:51:56;7.06;91.77
75022;SHT31;63583;49.976;20.182;2022-11-10T05:54:23;7.31;90.75
75022;SHT31;63583;49.976;20.182;2022-11-10T05:56:51;7.34;90.42
75022;SHT31;63583;49.976;20.182;2022-11-10T05:59:27;7.36;90.59
75022;SHT31;63583;49.976;20.182;2022-11-10T06:01:54;7.56;89.69
75022;SHT31;63583;49.976;20.182;2022-11-10T06:04:20;7.53;90.09
75022;SHT31;63583;49.976;20.182;2022-11-10T06:06:46;7.53;90.29
75022;SHT31;63583;49.976;20.182;2022-11-10T06:09:12;7.53;90.39
75022;SHT31;63583;49.976;20.182;2022-11-10T06:11:38;7.56;90.55
75022;SHT31;63583;49.976;20.182;2022-11-10T06:14:04;7.57;90.57
75022;SHT31;63583;49.976;20.182;2022-11-10T06:16:30;7.60;90.34
75022;SHT31;63583;49.976;20.182;2022-11-10T06:18:56;7.61;90.31
75022;SHT31;63583;49.976;20.182;2022-11-10T06:21:22;7.85;89.45
75022;SHT31;63583;49.976;20.182;2022-11-10T06:23:50;7.85;89.44
75022;SHT31;63583;49.976;20.182;2022-11-10T06:26:16;7.85;89.35
75022;SHT31;63583;49.976;20.182;2022-11-10T06:28:43;7.85;89.30
75022;SHT31;63583;49.976;20.182;2022-11-10T06:31:10;7.84;89.63
75022;SHT31;63583;49.976;20.182;2022-11-10T06:33:37;7.84;89.45
75022;SHT31;63583;49.976;20.182;2022-11-10T06:36:08;7.92;89.15
75022;SHT31;63583;49.976;20.182;2022-11-10T06:38:34;7.96;88.93
75022;SHT31;63583;49.976;20.182;2022-11-10T06:41:01;8.01;88.82
75022;SHT31;63583;49.976;20.182;2022-11-10T06:43:29;7.96;89.01
75022;SHT31;63583;49.976;20.182;2022-11-10T06:45:57;7.98;89.25
75022;SHT31;63583;49.976;20.182;2022-11-10T06:48:24;7.99;89.30
75022;SHT31;63583;49.976;20.182;2022-11-10T06:50:51;8.03;89.10
75022;SHT31;63583;49.976;20.182;2022-11-10T06:53:19;8.25;88.04
75022;SHT31;63583;49.976;20.182;2022-11-10T06:55:45;8.23;88.25
75022;SHT31;63583;49.976;20.182;2022-11-10T06:58:11;8.32;87.36
75022;SHT31;63583;49.976;20.182;2022-11-10T07:00:37;8.32;87.57
75022;SHT31;63583;49.976;20.182;2022-11-10T07:03:09;8.30;87.55
75022;SHT31;63583;49.976;20.182;2022-11-10T07:05:36;8.26;86.78
75022;SHT31;63583;49.976;20.182;2022-11-10T07:08:13;8.59;85.42
75022;SHT31;63583;49.976;20.182;2022-11-10T07:10:51;8.40;86.56
75022;SHT31;63583;49.976;20.182;2022-11-10T07:13:18;8.40;86.75
75022;SHT31;63583;49.976;20.182;2022-11-10T07:15:44;8.40;86.44
75022;SHT31;63583;49.976;20.182;2022-11-10T07:18:09;8.40;86.76
75022;SHT31;63583;49.976;20.182;2022-11-10T07:20:36;8.40;86.50
75022;SHT31;63583;49.976;20.182;2022-11-10T07:23:05;8.40;86.60
75022;SHT31;63583;49.976;20.182;2022-11-10T07:25:35;8.44;86.73
75022;SHT31;63583;49.976;20.182;2022-11-10T07:28:03;8.49;86.42
75022;SHT31;63583;49.976;20.182;2022-11-10T07:34:11;8.54;85.89
75022;SHT31;63583;49.976;20.182;2022-11-10T07:36:37;8.54;86.68
75022;SHT31;63583;49.976;20.182;2022-11-10T07:39:02;8.68;86.05
75022;SHT31;63583;49.976;20.182;2022-11-10T07:41:28;8.65;86.33
75022;SHT31;63583;49.976;20.182;2022-11-10T07:43:54;8.78;85.95
75022;SHT31;63583;49.976;20.182;2022-11-10T07:46:20;8.81;85.75
75022;SHT31;63583;49.976;20.182;2022-11-10T07:48:45;8.72;86.26
75022;SHT31;63583;49.976;20.182;2022-11-10T07:51:12;8.81;86.07
75022;SHT31;63583;49.976;20.182;2022-11-10T07:53:37;8.81;86.21
75022;SHT31;63583;49.976;20.182;2022-11-10T07:56:04;8.87;86.59
75022;SHT31;63583;49.976;20.182;2022-11-10T07:58:30;8.98;86.70
75022;SHT31;63583;49.976;20.182;2022-11-10T08:00:57;8.89;87.38
75022;SHT31;63583;49.976;20.182;2022-11-10T08:03:22;8.81;88.20
75022;SHT31;63583;49.976;20.182;2022-11-10T08:05:48;8.89;88.69
75022;SHT31;63583;49.976;20.182;2022-11-10T08:08:14;8.82;89.53
75022;SHT31;63583;49.976;20.182;2022-11-10T08:10:40;8.68;90.60
75022;SHT31;63583;49.976;20.182;2022-11-10T08:13:09;8.78;91.13
75022;SHT31;63583;49.976;20.182;2022-11-10T08:15:35;8.78;91.25
75022;SHT31;63583;49.976;20.182;2022-11-10T08:18:18;8.75;91.81
75022;SHT31;63583;49.976;20.182;2022-11-10T08:20:44;8.75;92.34
75022;SHT31;63583;49.976;20.182;2022-11-10T08:23:09;8.81;92.07
75022;SHT31;63583;49.976;20.182;2022-11-10T08:25:37;8.82;91.67
75022;SHT31;63583;49.976;20.182;2022-11-10T08:28:04;8.92;90.98
75022;SHT31;63583;49.976;20.182;2022-11-10T08:30:31;8.88;91.51
75022;SHT31;63583;49.976;20.182;2022-11-10T08:32:59;8.89;90.90
75022;SHT31;63583;49.976;20.182;2022-11-10T08:35:28;9.04;90.58
75022;SHT31;63583;49.976;20.182;2022-11-10T08:37:54;9.02;90.52
75022;SHT31;63583;49.976;20.182;2022-11-10T08:40:21;9.14;90.50
75022;SHT31;63583;49.976;20.182;2022-11-10T08:42:47;9.25;89.46
75022;SHT31;63583;49.976;20.182;2022-11-10T08:45:13;9.25;90.53
75022;SHT31;63583;49.976;20.182;2022-11-10T08:47:39;9.36;89.84
75022;SHT31;63583;49.976;20.182;2022-11-10T08:50:06;9.26;90.89
75022;SHT31;63583;49.976;20.182;2022-11-10T08:52:34;9.35;90.56
75022;SHT31;63583;49.976;20.182;2022-11-10T08:55:00;9.42;89.85
75022;SHT31;63583;49.976;20.182;2022-11-10T08:57:26;9.53;89.29
75022;SHT31;63583;49.976;20.182;2022-11-10T08:59:52;9.61;89.45
75022;SHT31;63583;49.976;20.182;2022-11-10T09:02:17;9.51;89.48
75022;SHT31;63583;49.976;20.182;2022-11-10T09:04:44;9.61;88.92
75022;SHT31;63583;49.976;20.182;2022-11-10T09:07:09;9.63;88.79
75022;SHT31;63583;49.976;20.182;2022-11-10T09:09:35;9.57;88.67
75022;SHT31;63583;49.976;20.182;2022-11-10T09:12:00;9.57;89.39
75022;SHT31;63583;49.976;20.182;2022-11-10T09:14:26;9.47;89.10
75022;SHT31;63583;49.976;20.182;2022-11-10T09:16:52;9.50;89.31
75022;SHT31;63583;49.976;20.182;2022-11-10T09:19:18;9.49;89.54
75022;SHT31;63583;49.976;20.182;2022-11-10T09:21:44;9.50;89.55
75022;SHT31;63583;49.976;20.182;2022-11-10T09:24:09;9.51;89.30
75022;SHT31;63583;49.976;20.182;2022-11-10T09:26:35;9.51;89.86
75022;SHT31;63583;49.976;20.182;2022-11-10T09:29:01;9.73;89.42
75022;SHT31;63583;49.976;20.182;2022-11-10T09:31:27;9.70;89.39
75022;SHT31;63583;49.976;20.182;2022-11-10T09:33:52;9.83;89.04
75022;SHT31;63583;49.976;20.182;2022-11-10T09:36:18;9.90;88.85
75022;SHT31;63583;49.976;20.182;2022-11-10T09:38:44;9.80;89.21
75022;SHT31;63583;49.976;20.182;2022-11-10T09:41:11;9.88;88.93
75022;SHT31;63583;49.976;20.182;2022-11-10T09:43:55;9.93;88.83
75022;SHT31;63583;49.976;20.182;2022-11-10T09:46:26;9.90;89.21
75022;SHT31;63583;49.976;20.182;2022-11-10T09:51:59;10.02;89.31
75022;SHT31;63583;49.976;20.182;2022-11-10T09:54:53;9.95;89.34
75022;SHT31;63583;49.976;20.182;2022-11-10T09:57:25;9.87;89.84
75022;SHT31;63583;49.976;20.182;2022-11-10T09:59:52;9.83;89.83
75022;SHT31;63583;49.976;20.182;2022-11-10T10:02:23;9.91;90.07
75022;SHT31;63583;49.976;20.182;2022-11-10T10:10:46;10.12;89.92
75022;SHT31;63583;49.976;20.182;2022-11-10T10:16:47;10.14;90.16
75022;SHT31;63583;49.976;20.182;2022-11-10T10:22:04;10.24;89.50
75022;SHT31;63583;49.976;20.182;2022-11-10T10:24:32;10.31;88.97
75022;SHT31;63583;49.976;20.182;2022-11-10T10:27:05;10.33;88.50
75022;SHT31;63583;49.976;20.182;2022-11-10T10:29:39;10.49;87.84
75022;SHT31;63583;49.976;20.182;2022-11-10T10:32:10;10.45;88.24
75022;SHT31;63583;49.976;20.182;2022-11-10T10:34:37;10.46;88.13
75022;SHT31;63583;49.976;20.182;2022-11-10T10:37:03;10.46;87.89
75022;SHT31;63583;49.976;20.182;2022-11-10T10:41:58;10.49;87.72
75022;SHT31;63583;49.976;20.182;2022-11-10T10:44:24;10.64;86.18
75022;SHT31;63583;49.976;20.182;2022-11-10T10:46:54;10.57;86.90
75022;SHT31;63583;49.976;20.182;2022-11-10T10:52:10;10.64;87.37
75022;SHT31;63583;49.976;20.182;2022-11-10T10:54:37;10.67;86.28
75022;SHT31;63583;49.976;20.182;2022-11-10T10:57:26;10.62;87.07
75022;SHT31;63583;49.976;20.182;2022-11-10T11:00:17;10.63;86.25
75022;SHT31;63583;49.976;20.182;2022-11-10T11:03:00;10.63;86.62
75022;SHT31;63583;49.976;20.182;2022-11-10T11:05:26;10.67;86.68
75022;SHT31;63583;49.976;20.182;2022-11-10T11:07:56;10.69;87.37
75022;SHT31;63583;49.976;20.182;2022-11-10T11:10:28;10.72;86.35
75022;SHT31;63583;49.976;20.182;2022-11-10T11:12:54;10.74;85.94
75022;SHT31;63583;49.976;20.182;2022-11-10T11:15:37;10.91;85.82
75022;SHT31;63583;49.976;20.182;2022-11-10T11:18:12;10.90;85.89
75022;SHT31;63583;49.976;20.182;2022-11-10T11:26:37;10.96;85.23
75022;SHT31;63583;49.976;20.182;2022-11-10T11:32:26;10.87;85.38
75022;SHT31;63583;49.976;20.182;2022-11-10T11:35:02;10.96;85.36
75022;SHT31;63583;49.976;20.182;2022-11-10T11:40:52;10.77;85.74
75022;SHT31;63583;49.976;20.182;2022-11-10T11:54:25;10.91;87.06
75022;SHT31;63583;49.976;20.182;2022-11-10T11:56:58;10.74;88.04
75022;SHT31;63583;49.976;20.182;2022-11-10T12:02:27;10.62;89.03
75022;SHT31;63583;49.976;20.182;2022-11-10T12:05:10;10.50;89.73
75022;SHT31;63583;49.976;20.182;2022-11-10T12:10:41;10.62;89.26
75022;SHT31;63583;49.976;20.182;2022-11-10T12:18:46;10.48;90.21
75022;SHT31;63583;49.976;20.182;2022-11-10T12:21:22;10.38;90.63
75022;SHT31;63583;49.976;20.182;2022-11-10T12:28:46;10.49;89.93
75022;SHT31;63583;49.976;20.182;2022-11-10T12:31:17;10.46;89.76
75022;SHT31;63583;49.976;20.182;2022-11-10T12:33:49;10.55;89.55
75022;SHT31;63583;49.976;20.182;2022-11-10T12:36:19;10.49;89.77
75022;SHT31;63583;49.976;20.182;2022-11-10T12:38:54;10.60;89.01
75022;SHT31;63583;49.976;20.182;2022-11-10T12:41:22;10.57;89.66
75022;SHT31;63583;49.976;20.182;2022-11-10T12:44:06;10.59;89.09
75022;SHT31;63583;49.976;20.182;2022-11-10T12:46:33;10.64;89.26
75022;SHT31;63583;49.976;20.182;2022-11-10T12:49:02;10.73;88.44
75022;SHT31;63583;49.976;20.182;2022-11-10T12:53:59;10.66;88.75
75022;SHT31;63583;49.976;20.182;2022-11-10T12:56:35;10.73;88.06
75022;SHT31;63583;49.976;20.182;2022-11-10T12:59:22;10.80;88.38
75022;SHT31;63583;49.976;20.182;2022-11-10T13:01:51;10.72;88.63
75022;SHT31;63583;49.976;20.182;2022-11-10T13:04:22;10.70;88.33
75022;SHT31;63583;49.976;20.182;2022-11-10T13:06:53;10.73;87.88
75022;SHT31;63583;49.976;20.182;2022-11-10T13:09:27;10.74;87.73
75022;SHT31;63583;49.976;20.182;2022-11-10T13:12:13;10.79;87.91
75022;SHT31;63583;49.976;20.182;2022-11-10T13:14:41;10.79;87.81
75022;SHT31;63583;49.976;20.182;2022-11-10T13:17:10;10.83;87.44
75022;SHT31;63583;49.976;20.182;2022-11-10T13:22:08;10.83;87.46
75022;SHT31;63583;49.976;20.182;2022-11-10T13:24:36;10.83;87.37
75022;SHT31;63583;49.976;20.182;2022-11-10T13:27:10;10.74;87.56
75022;SHT31;63583;49.976;20.182;2022-11-10T13:34:40;10.91;87.07
75022;SHT31;63583;49.976;20.182;2022-11-10T13:42:43;10.81;87.11
75022;SHT31;63583;49.976;20.182;2022-11-10T13:45:28;10.70;87.73
75022;SHT31;63583;49.976;20.182;2022-11-10T13:58:58;10.63;87.86
75022;SHT31;63583;49.976;20.182;2022-11-10T14:01:27;10.64;87.44
75022;SHT31;63583;49.976;20.182;2022-11-10T14:03:57;10.59;87.82
75022;SHT31;63583;49.976;20.182;2022-11-10T14:06:47;10.63;87.93
75022;SHT31;63583;49.976;20.182;2022-11-10T14:12:12;10.66;87.57
75022;SHT31;63583;49.976;20.182;2022-11-10T14:17:20;10.64;86.98
75022;SHT31;63583;49.976;20.182;2022-11-10T14:19:47;10.49;87.30
75022;SHT31;63583;49.976;20.182;2022-11-10T14:25:04;10.29;88.25
75022;SHT31;63583;49.976;20.182;2022-11-10T14:27:33;10.18;88.14
75022;SHT31;63583;49.976;20.182;2022-11-10T14:30:17;10.14;88.22
75022;SHT31;63583;49.976;20.182;2022-11-10T14:32:54;9.97;88.69
75022;SHT31;63583;49.976;20.182;2022-11-10T14:35:30;10.02;88.31
75022;SHT31;63583;49.976;20.182;2022-11-10T14:38:00;9.91;88.86
75022;SHT31;63583;49.976;20.182;2022-11-10T14:40:27;9.94;88.64
75022;SHT31;63583;49.976;20.182;2022-11-10T14:42:54;9.91;88.98
75022;SHT31;63583;49.976;20.182;2022-11-10T14:45:23;9.83;88.85
75022;SHT31;63583;49.976;20.182;2022-11-10T14:47:54;9.64;89.62
75022;SHT31;63583;49.976;20.182;2022-11-10T14:50:23;9.63;89.54
75022;SHT31;63583;49.976;20.182;2022-11-10T14:52:54;9.56;89.74
75022;SHT31;63583;49.976;20.182;2022-11-10T14:55:24;9.53;89.72
75022;SHT31;63583;49.976;20.182;2022-11-10T14:57:59;9.54;89.55
75022;SHT31;63583;49.976;20.182;2022-11-10T15:00:26;9.44;90.20
75022;SHT31;63583;49.976;20.182;2022-11-10T15:02:55;9.46;90.11
75022;SHT31;63583;49.976;20.182;2022-11-10T15:05:21;9.39;90.35
75022;SHT31;63583;49.976;20.182;2022-11-10T15:07:51;9.33;90.80
75022;SHT31;63583;49.976;20.182;2022-11-10T15:10:19;9.46;90.16
75022;SHT31;63583;49.976;20.182;2022-11-10T15:13:18;9.29;90.53
75022;SHT31;63583;49.976;20.182;2022-11-10T15:15:42;9.25;90.73
75022;SHT31;63583;49.976;20.182;2022-11-10T15:18:23;9.23;90.98
75022;SHT31;63583;49.976;20.182;2022-11-10T15:21:08;9.38;90.61
75022;SHT31;63583;49.976;20.182;2022-11-10T15:23:41;9.42;90.63
75022;SHT31;63583;49.976;20.182;2022-11-10T15:26:23;9.63;89.90
75022;SHT31;63583;49.976;20.182;2022-11-10T15:28:50;9.56;90.04
75022;SHT31;63583;49.976;20.182;2022-11-10T15:31:28;9.70;89.57
75022;SHT31;63583;49.976;20.182;2022-11-10T15:33:59;9.76;89.44
75022;SHT31;63583;49.976;20.182;2022-11-10T15:36:31;9.77;89.39
75022;SHT31;63583;49.976;20.182;2022-11-10T15:41:30;9.78;89.03
75022;SHT31;63583;49.976;20.182;2022-11-10T15:43:57;9.86;88.71
75022;SHT31;63583;49.976;20.182;2022-11-10T15:46:35;9.98;88.00
75022;SHT31;63583;49.976;20.182;2022-11-10T15:49:00;9.95;87.98
75022;SHT31;63583;49.976;20.182;2022-11-10T15:51:28;10.08;87.33
75022;SHT31;63583;49.976;20.182;2022-11-10T15:53:54;10.11;87.17
75022;SHT31;63583;49.976;20.182;2022-11-10T15:56:21;10.08;87.23
75022;SHT31;63583;49.976;20.182;2022-11-10T15:58:49;10.11;86.99
75022;SHT31;63583;49.976;20.182;2022-11-10T16:01:16;10.08;86.80
75022;SHT31;63583;49.976;20.182;2022-11-10T16:03:43;9.98;87.02
75022;SHT31;63583;49.976;20.182;2022-11-10T16:06:12;10.02;86.64
75022;SHT31;63583;49.976;20.182;2022-11-10T16:08:38;10.09;86.25
75022;SHT31;63583;49.976;20.182;2022-11-10T16:11:04;10.01;86.49
75022;SHT31;63583;49.976;20.182;2022-11-10T16:13:33;10.15;85.84
75022;SHT31;63583;49.976;20.182;2022-11-10T16:15:59;10.08;86.18
75022;SHT31;63583;49.976;20.182;2022-11-10T16:18:28;10.05;85.81
75022;SHT31;63583;49.976;20.182;2022-11-10T16:20:54;10.11;85.65
75022;SHT31;63583;49.976;20.182;2022-11-10T16:23:20;10.14;85.72
75022;SHT31;63583;49.976;20.182;2022-11-10T16:25:47;10.29;84.95
75022;SHT31;63583;49.976;20.182;2022-11-10T16:28:16;10.33;84.62
75022;SHT31;63583;49.976;20.182;2022-11-10T16:30:44;10.35;84.56
75022;SHT31;63583;49.976;20.182;2022-11-10T16:33:14;10.35;84.53
75022;SHT31;63583;49.976;20.182;2022-11-10T16:35:41;10.32;84.36
75022;SHT31;63583;49.976;20.182;2022-11-10T16:38:28;10.31;84.69
75022;SHT31;63583;49.976;20.182;2022-11-10T16:40:56;10.29;84.59
75022;SHT31;63583;49.976;20.182;2022-11-10T16:43:23;10.39;84.18
75022;SHT31;63583;49.976;20.182;2022-11-10T16:45:51;10.39;84.24
75022;SHT31;63583;49.976;20.182;2022-11-10T16:48:20;10.38;84.19
75022;SHT31;63583;49.976;20.182;2022-11-10T16:50:49;10.38;83.81
75022;SHT31;63583;49.976;20.182;2022-11-10T16:53:16;10.41;83.76
75022;SHT31;63583;49.976;20.182;2022-11-10T16:55:43;10.42;83.45
75022;SHT31;63583;49.976;20.182;2022-11-10T16:58:09;10.55;82.63
75022;SHT31;63583;49.976;20.182;2022-11-10T17:00:35;10.45;83.13
75022;SHT31;63583;49.976;20.182;2022-11-10T17:03:14;10.39;83.21
75022;SHT31;63583;49.976;20.182;2022-11-10T17:05:40;10.55;82.37
75022;SHT31;63583;49.976;20.182;2022-11-10T17:08:16;10.50;82.40
75022;SHT31;63583;49.976;20.182;2022-11-10T17:10:53;10.53;82.34
75022;SHT31;63583;49.976;20.182;2022-11-10T17:13:27;10.53;82.27
75022;SHT31;63583;49.976;20.182;2022-11-10T17:16:02;10.56;82.09
75022;SHT31;63583;49.976;20.182;2022-11-10T17:18:30;10.55;82.02
75022;SHT31;63583;49.976;20.182;2022-11-10T17:20:59;10.67;81.49
75022;SHT31;63583;49.976;20.182;2022-11-10T17:23:31;10.46;82.44
75022;SHT31;63583;49.976;20.182;2022-11-10T17:26:10;10.52;82.22